logo dgac
Miércoles 19 de Junio del 2024
Buscar por aerodromo o helipuerto
Ingrese nombre de aeródromo, localidad o designador OACI:
TAF: TAF SCPD 181625Z 1816/1824 31011KT 9999 SCT060 BKN100 TX14/1817Z TN10/1824Z TEMPO 1818/1822 4000 +RA BKN012 OVC025
TAF del 18/06/2024 a las 16:25 UTC
Para mayor información visite www.meteochile.gob.cl
Período de validez: desde el 18 a las 16:00 UTC hasta el 18 a las 24:00 UTC
Viento: dirección 310 grados, velocidad 11 nudos
Visibilidad: 10 km o más
Nubes: Nubosidad parcial a 6000 pies sobre el nivel del aeródromo
Nubes: Nublado a 10000 pies sobre el nivel del aeródromo
Temperatura máxima: 14ºC el 18 a las 17:00 UTC
Temperatura mínima: 10ºC el 18 a las 24:00 UTC
Se espera en forma temporal entre las 18:00 UTC del 18 y las 22:00 UTC del 18:
Visibilidad: 4000 metros
Fuertes Lluvia
Nubes: Nublado a 1200 pies sobre el nivel del aeródromo
Nubes: Cubierto a 2500 pies sobre el nivel del aeródromo